Ventura, Iowa
Current Conditions -  °F | °C
As of 3:53 PM on Friday 24 Oct 2014 (Local Time) from KMCW Reporting Station
Clear Clear  
Wind Chill: 67°   Ceiling: Unl
Heat Index: 67°   Visibility: 8mi
Dew Point: 58°   Wind: 8mph
Humidity: 73%   Direction: 230°SW
Pressure: 29.88"   Gusts: NA
Location:  43.13°N, 93.48°W
Report Text: KMCW 242053Z AUTO 23007KT 8SM CLR 19/14 A2988 RMK AO2 SLP114 T01940144 55013
Loading
Personal Weather Stations






























Interactive Weather Map
Tropical Storm Tracking
New forecast layout! Learn more

10-Day Weather Forecast

Advertisements
Track Severe Weather on mobile